Time;durP1;ratioP1;P1;durP2;ratioP2;P2;SDS_P1;SDS_P2;PMS_P1;PMS_P2;Temp;Humidity;BMP_temperature;BMP_pressure;BME280_temperature;BME280_humidity;BME280_pressure;Samples;Min_cycle;Max_cycle;Signal;HPM_P1;HPM_P2
2024/01/13 00:00:11;;;;;;;22.95;11.48;;;;;;;-1.41;89.15;100919.19;5077399;28;20456;-43
2024/01/13 00:02:39;;;;;;;23.52;11.93;;;;;;;-1.36;90.25;100917.44;5080789;28;20045;-45
2024/01/13 00:05:08;;;;;;;24.30;12.50;;;;;;;-1.31;89.54;100931.41;5079582;28;20124;-42
2024/01/13 00:07:36;;;;;;;23.02;11.82;;;;;;;-1.25;89.67;100928.78;5079892;28;20091;-44
2024/01/13 00:10:05;;;;;;;25.48;12.43;;;;;;;-1.27;89.79;100922.66;5081355;28;20108;-44
2024/01/13 00:12:33;;;;;;;23.55;12.00;;;;;;;-1.30;90.52;100933.13;5080969;28;20493;-44
2024/01/13 00:15:04;;;;;;;22.50;12.40;;;;;;;-1.22;90.39;100922.66;5080781;28;20053;-44
2024/01/13 00:17:32;;;;;;;21.65;12.73;;;;;;;-1.28;90.66;100927.91;5080258;28;20044;-43
2024/01/13 00:20:04;;;;;;;24.67;12.88;;;;;;;-1.30;92.21;100927.91;5083581;28;20044;-44
2024/01/13 00:22:32;;;;;;;20.95;10.75;;;;;;;-1.35;91.63;100915.69;5082591;28;20056;-44
2024/01/13 00:25:00;;;;;;;28.58;11.85;;;;;;;-1.26;91.96;100916.53;5082017;28;20049;-44
2024/01/13 00:27:29;;;;;;;23.67;12.60;;;;;;;-1.38;92.18;100919.19;5082062;28;20504;-43
2024/01/13 00:29:57;;;;;;;25.80;12.95;;;;;;;-1.42;92.84;100937.53;5082251;28;20105;-42
2024/01/13 00:32:27;;;;;;;23.80;12.32;;;;;;;-1.51;93.99;100943.63;5082459;28;20048;-43
2024/01/13 00:34:56;;;;;;;24.10;12.70;;;;;;;-1.51;93.27;100928.78;5083278;28;20048;-42
2024/01/13 00:37:24;;;;;;;24.65;11.18;;;;;;;-1.55;94.20;100940.13;5081248;28;20056;-42
2024/01/13 00:39:55;;;;;;;24.45;11.63;;;;;;;-1.55;94.37;100941.84;5085602;28;20048;-41
2024/01/13 00:42:23;;;;;;;24.83;12.50;;;;;;;-1.49;94.01;100920.94;5083539;28;20044;-47
2024/01/13 00:44:52;;;;;;;24.88;12.82;;;;;;;-1.46;93.77;100918.31;5081988;28;20135;-43
2024/01/13 00:47:22;;;;;;;22.63;11.32;;;;;;;-1.46;92.76;100916.56;5082270;28;20044;-44
2024/01/13 00:49:54;;;;;;;22.65;11.45;;;;;;;-1.50;92.80;100927.06;5081028;28;20048;-42
2024/01/13 00:52:23;;;;;;;23.63;11.80;;;;;;;-1.43;92.94;100928.81;5081592;28;20056;-44
2024/01/13 00:54:51;;;;;;;23.88;11.90;;;;;;;-1.46;92.24;100934.88;5081663;28;20056;-45
2024/01/13 00:57:20;;;;;;;19.33;11.07;;;;;;;-1.46;92.34;100928.78;5081289;28;20044;-44
2024/01/13 00:59:48;;;;;;;24.70;11.35;;;;;;;-1.41;92.36;100918.31;5080801;28;20048;-43
2024/01/13 01:02:16;;;;;;;20.38;11.25;;;;;;;-1.43;90.69;100914.84;5081261;28;20044;-44
2024/01/13 01:04:46;;;;;;;22.33;11.32;;;;;;;-1.50;90.97;100909.59;5081266;28;20556;-43
2024/01/13 01:07:16;;;;;;;20.27;11.15;;;;;;;-1.50;90.40;100914.84;5080094;28;20064;-48
2024/01/13 01:09:44;;;;;;;23.60;11.15;;;;;;;-1.45;90.02;100925.28;5080923;28;20075;-44
2024/01/13 01:12:13;;;;;;;20.08;10.85;;;;;;;-1.46;89.81;100916.56;5080607;28;20056;-44
2024/01/13 01:14:41;;;;;;;20.88;10.05;;;;;;;-1.51;90.03;100917.47;5081915;28;20049;-43
2024/01/13 01:17:10;;;;;;;19.83;11.00;;;;;;;-1.47;90.00;100921.81;5084332;28;20104;-43
2024/01/13 01:19:41;;;;;;;18.95;10.10;;;;;;;-1.42;90.46;100922.69;5083009;28;20104;-42
2024/01/13 01:22:10;;;;;;;19.88;10.90;;;;;;;-1.42;89.56;100901.75;5082349;28;20060;-44
2024/01/13 01:24:40;;;;;;;18.48;10.40;;;;;;;-1.40;89.45;100905.22;5081880;28;20068;-44
2024/01/13 01:27:08;;;;;;;19.70;10.95;;;;;;;-1.36;89.60;100904.34;5076847;28;20083;-44
2024/01/13 01:29:36;;;;;;;21.42;9.95;;;;;;;-1.33;88.49;100888.66;5074622;28;20045;-43
2024/01/13 01:32:05;;;;;;;20.02;10.02;;;;;;;-1.36;88.86;100886.03;5078218;28;20044;-49
2024/01/13 01:34:34;;;;;;;17.13;9.38;;;;;;;-1.38;88.81;100873.81;5074813;28;20086;-41
2024/01/13 01:37:02;;;;;;;18.55;9.60;;;;;;;-1.31;88.25;100884.28;5074894;28;20374;-43
2024/01/13 01:39:31;;;;;;;19.27;10.27;;;;;;;-1.31;88.44;100876.44;5074409;28;20087;-44
2024/01/13 01:42:01;;;;;;;18.38;9.98;;;;;;;-1.30;88.67;100865.09;5074643;28;20101;-43
2024/01/13 01:44:29;;;;;;;18.63;9.77;;;;;;;-1.26;88.19;100866.81;5074164;28;20109;-43
2024/01/13 01:47:00;;;;;;;17.92;9.98;;;;;;;-1.29;88.18;100871.19;5073973;28;20052;-44
2024/01/13 01:49:28;;;;;;;17.52;9.60;;;;;;;-1.24;87.68;100859.84;5074294;28;20055;-42
2024/01/13 01:51:57;;;;;;;18.13;9.75;;;;;;;-1.27;87.38;100857.22;5073563;28;20052;-43
2024/01/13 01:54:25;;;;;;;16.30;9.57;;;;;;;-1.22;87.16;100850.25;5073756;28;20048;-43
2024/01/13 01:56:54;;;;;;;19.63;9.75;;;;;;;-1.21;86.51;100836.28;5073765;28;20143;-44
2024/01/13 01:59:24;;;;;;;16.10;9.20;;;;;;;-1.22;85.98;100823.19;5073383;28;20048;-42
2024/01/13 02:01:53;;;;;;;15.85;8.90;;;;;;;-1.17;85.82;100824.91;5073451;28;20040;-42
2024/01/13 02:04:24;;;;;;;18.35;8.95;;;;;;;-1.12;85.55;100821.41;5072798;28;20079;-42
2024/01/13 02:06:53;;;;;;;15.52;9.07;;;;;;;-1.10;85.03;100822.28;5073001;28;20097;-43
2024/01/13 02:09:22;;;;;;;17.05;8.93;;;;;;;-1.01;85.03;100817.00;5073117;28;20102;-43
2024/01/13 02:11:51;;;;;;;15.77;9.23;;;;;;;-1.03;84.82;100808.28;5073389;28;20044;-42
2024/01/13 02:14:20;;;;;;;18.75;9.50;;;;;;;-1.06;84.85;100813.53;5073310;28;20056;-43
2024/01/13 02:16:50;;;;;;;16.95;9.10;;;;;;;-1.05;84.18;100810.91;5072166;28;20147;-43
2024/01/13 02:19:22;;;;;;;16.42;9.38;;;;;;;-1.12;85.15;100826.66;5073123;28;20049;-43
2024/01/13 02:21:52;;;;;;;15.20;8.75;;;;;;;-1.14;84.45;100797.00;5072685;28;20485;-43
2024/01/13 02:24:20;;;;;;;16.58;8.85;;;;;;;-1.08;84.71;100815.28;5073454;28;20101;-42
2024/01/13 02:26:49;;;;;;;16.45;9.25;;;;;;;-1.09;85.17;100814.41;5072997;28;20426;-44
2024/01/13 02:29:17;;;;;;;15.07;9.00;;;;;;;-1.11;84.67;100810.94;5072317;28;20140;-43
2024/01/13 02:31:45;;;;;;;14.77;8.98;;;;;;;-1.13;84.85;100819.69;5072258;28;20481;-43
2024/01/13 02:34:14;;;;;;;16.85;9.35;;;;;;;-1.17;84.98;100824.03;5072993;28;20072;-44
2024/01/13 02:36:42;;;;;;;14.10;8.30;;;;;;;-1.14;85.22;100808.34;5072474;28;20045;-43
2024/01/13 02:39:13;;;;;;;14.98;8.75;;;;;;;-1.10;85.18;100809.19;5073456;28;20076;-44
2024/01/13 02:41:42;;;;;;;14.10;8.70;;;;;;;-1.04;85.12;100811.78;5072819;28;20127;-43
2024/01/13 02:44:11;;;;;;;15.88;9.10;;;;;;;-1.02;85.07;100812.66;5073077;28;20045;-43
2024/01/13 02:46:39;;;;;;;15.68;9.20;;;;;;;-0.92;84.37;100811.72;5073283;28;20040;-43
2024/01/13 02:49:09;;;;;;;15.15;8.52;;;;;;;-0.94;83.84;100810.88;5073202;28;20040;-42
2024/01/13 02:51:37;;;;;;;17.35;9.00;;;;;;;-0.96;83.59;100802.16;5072912;28;20041;-43
2024/01/13 02:54:06;;;;;;;15.35;8.48;;;;;;;-1.00;82.78;100823.97;5072672;28;20132;-42
2024/01/13 02:56:36;;;;;;;13.35;8.15;;;;;;;-1.03;83.17;100816.16;5071263;28;20059;-42
2024/01/13 02:59:04;;;;;;;12.80;8.20;;;;;;;-0.96;83.21;100815.25;5072675;28;20044;-42
2024/01/13 03:01:32;;;;;;;15.95;8.95;;;;;;;-0.93;83.18;100807.38;5072702;28;20127;-44
2024/01/13 03:04:01;;;;;;;13.85;7.95;;;;;;;-0.87;82.61;100796.84;5072307;28;20464;-43
2024/01/13 03:06:29;;;;;;;14.15;8.23;;;;;;;-0.88;82.45;100789.88;5072477;28;20052;-43
2024/01/13 03:08:58;;;;;;;14.07;8.73;;;;;;;-0.88;82.27;100792.50;5072897;28;20145;-42
2024/01/13 03:11:27;;;;;;;15.43;8.38;;;;;;;-0.86;82.07;100780.28;5072750;28;20136;-45
2024/01/13 03:13:57;;;;;;;13.85;7.47;;;;;;;-0.93;82.17;100776.81;5073950;28;20641;-43
2024/01/13 03:16:26;;;;;;;13.95;7.35;;;;;;;-1.03;82.69;100771.63;5075396;28;20059;-43
2024/01/13 03:18:55;;;;;;;16.27;8.73;;;;;;;-1.04;83.10;100783.00;5075565;28;20045;-43
2024/01/13 03:21:24;;;;;;;14.02;8.30;;;;;;;-0.93;83.38;100775.94;5076182;28;20045;-43
2024/01/13 03:23:52;;;;;;;15.02;8.18;;;;;;;-0.99;83.05;100783.81;5075999;28;20413;-42
2024/01/13 03:26:21;;;;;;;13.63;8.27;;;;;;;-1.04;83.31;100767.28;5075422;28;20055;-44
2024/01/13 03:28:52;;;;;;;15.52;9.10;;;;;;;-0.95;83.30;100777.72;5075556;28;20051;-43
2024/01/13 03:31:21;;;;;;;14.18;8.40;;;;;;;-1.02;83.70;100766.38;5075505;28;20539;-42
2024/01/13 03:33:50;;;;;;;16.95;8.93;;;;;;;-1.02;84.01;100770.75;5075613;28;20106;-41
2024/01/13 03:36:19;;;;;;;17.70;8.95;;;;;;;-1.00;84.05;100779.47;5075639;28;20098;-43
2024/01/13 03:38:47;;;;;;;15.25;9.15;;;;;;;-1.08;84.03;100783.84;5075940;28;20556;-43
2024/01/13 03:41:18;;;;;;;17.00;9.88;;;;;;;-1.11;84.55;100761.19;5075779;28;20486;-43
2024/01/13 03:43:46;;;;;;;18.20;9.48;;;;;;;-1.05;84.45;100768.16;5075343;28;20127;-43
2024/01/13 03:46:15;;;;;;;16.00;9.48;;;;;;;-1.06;84.80;100748.97;5075076;28;20048;-43
2024/01/13 03:48:46;;;;;;;14.10;8.48;;;;;;;-1.01;84.67;100762.00;5075444;28;20071;-43
2024/01/13 03:51:16;;;;;;;15.27;9.27;;;;;;;-0.93;84.21;100755.00;5075834;28;20469;-43
2024/01/13 03:53:48;;;;;;;17.67;10.20;;;;;;;-0.97;84.67;100753.25;5075588;28;20064;-42
2024/01/13 03:56:17;;;;;;;16.02;9.13;;;;;;;-1.07;85.04;100765.53;5075231;28;20520;-42
2024/01/13 03:58:48;;;;;;;15.70;9.20;;;;;;;-1.12;85.64;100748.13;5075008;28;20487;-45
2024/01/13 04:01:16;;;;;;;17.40;9.50;;;;;;;-1.14;85.91;100739.41;5074405;28;20515;-42
2024/01/13 04:03:48;;;;;;;17.00;9.68;;;;;;;-1.12;86.70;100740.25;5074938;28;20049;-43
2024/01/13 04:06:17;;;;;;;16.75;9.65;;;;;;;-1.19;86.66;100737.66;5074964;28;20091;-43
2024/01/13 04:08:46;;;;;;;15.80;9.27;;;;;;;-1.20;87.56;100742.91;5074763;28;20135;-42
2024/01/13 04:11:14;;;;;;;22.25;10.57;;;;;;;-1.15;87.64;100728.06;5080220;28;20068;-53
2024/01/13 04:13:43;;;;;;;19.10;10.18;;;;;;;-1.21;87.62;100759.50;5081395;28;20135;-42
2024/01/13 04:16:12;;;;;;;18.58;10.32;;;;;;;-1.24;88.49;100725.47;5082696;28;20044;-42
2024/01/13 04:18:40;;;;;;;21.90;11.50;;;;;;;-1.20;88.26;100735.91;5082330;28;20074;-42
2024/01/13 04:21:10;;;;;;;18.95;10.35;;;;;;;-1.23;88.72;100733.31;5082879;28;20075;-43
2024/01/13 04:23:51;;;;;;;17.90;10.18;;;;;;;-1.17;88.41;100737.63;5084555;28;20044;-43
2024/01/13 04:26:21;;;;;;;18.52;10.50;;;;;;;-1.16;88.31;100748.13;5083552;28;20048;-43
2024/01/13 04:28:49;;;;;;;20.38;10.55;;;;;;;-1.14;88.72;100744.63;5082325;28;20057;-45
2024/01/13 04:31:18;;;;;;;18.73;10.85;;;;;;;-1.13;88.68;100746.38;5083698;28;20045;-44
2024/01/13 04:33:46;;;;;;;19.17;10.35;;;;;;;-0.98;88.20;100748.91;5084652;28;20045;-45
2024/01/13 04:36:16;;;;;;;19.20;10.63;;;;;;;-1.08;89.15;100752.44;5083135;28;20044;-43
2024/01/13 04:38:45;;;;;;;18.65;11.25;;;;;;;-1.14;88.97;100734.16;5082601;28;20051;-42
2024/01/13 04:41:14;;;;;;;20.63;11.73;;;;;;;-1.05;88.97;100750.69;5082379;28;20410;-43
2024/01/13 04:43:43;;;;;;;21.17;11.30;;;;;;;-1.05;89.49;100739.34;5080595;28;20501;-43
2024/01/13 04:46:12;;;;;;;22.90;11.57;;;;;;;-0.97;88.84;100737.53;5081021;28;20044;-44
2024/01/13 04:48:40;;;;;;;20.42;11.77;;;;;;;-0.97;88.82;100743.66;5081391;28;20057;-44
2024/01/13 04:51:09;;;;;;;22.80;11.27;;;;;;;-0.97;89.14;100734.91;5082340;28;20063;-44
2024/01/13 04:53:39;;;;;;;20.98;11.60;;;;;;;-1.04;89.46;100735.84;5083366;28;20078;-45
2024/01/13 04:56:08;;;;;;;20.15;11.05;;;;;;;-1.14;90.09;100728.94;5082519;28;20053;-45
2024/01/13 04:58:36;;;;;;;20.67;10.75;;;;;;;-1.04;90.13;100728.88;5083613;28;20055;-45
2024/01/13 05:01:04;;;;;;;22.55;11.55;;;;;;;-1.15;91.13;100725.44;5082727;28;20098;-42
2024/01/13 05:03:32;;;;;;;22.63;12.25;;;;;;;-1.19;91.58;100729.81;5082360;28;20056;-43
2024/01/13 05:06:01;;;;;;;22.60;12.25;;;;;;;-1.18;91.47;100731.53;5080724;28;20076;-43
2024/01/13 05:08:32;;;;;;;20.33;11.00;;;;;;;-1.16;91.54;100727.19;5081310;28;20044;-42
2024/01/13 05:11:02;;;;;;;20.33;11.32;;;;;;;-1.03;90.99;100724.50;5080923;28;20122;-43
2024/01/13 05:13:33;;;;;;;20.80;11.32;;;;;;;-0.99;90.98;100720.97;5080807;28;20045;-51
2024/01/13 05:16:03;;;;;;;21.40;11.95;;;;;;;-1.00;91.31;100720.09;5076333;28;20406;-43
2024/01/13 05:18:31;;;;;;;20.40;11.70;;;;;;;-1.09;92.23;100737.63;5076925;28;20052;-48
2024/01/13 05:21:00;;;;;;;21.25;12.30;;;;;;;-1.14;92.94;100735.03;5075440;28;20473;-44
2024/01/13 05:23:29;;;;;;;20.92;12.00;;;;;;;-1.15;94.07;100743.78;5075089;28;20480;-41
2024/01/13 05:25:58;;;;;;;21.38;12.20;;;;;;;-1.14;94.00;100734.16;5074591;28;20045;-44
2024/01/13 05:28:28;;;;;;;24.42;12.57;;;;;;;-1.08;93.48;100742.84;5074122;28;20486;-42
2024/01/13 05:30:57;;;;;;;20.42;12.23;;;;;;;-1.08;93.76;100741.97;5074579;28;20119;-43
2024/01/13 05:33:26;;;;;;;24.02;12.38;;;;;;;-1.06;94.26;100742.81;5074282;28;20478;-45
2024/01/13 05:35:55;;;;;;;22.77;11.93;;;;;;;-1.12;95.95;100740.25;5073770;28;20047;-44
2024/01/13 05:38:23;;;;;;;20.63;11.48;;;;;;;-1.01;95.43;100749.78;5072848;28;20060;-44
2024/01/13 05:40:52;;;;;;;22.27;12.10;;;;;;;-0.96;94.72;100748.03;5073769;28;20397;-44
2024/01/13 05:43:20;;;;;;;23.95;13.02;;;;;;;-1.02;94.80;100744.56;5073549;28;20482;-44
2024/01/13 05:45:50;;;;;;;21.83;12.77;;;;;;;-1.01;95.14;100738.44;5073485;28;20497;-42
2024/01/13 05:48:19;;;;;;;23.58;12.13;;;;;;;-1.04;95.18;100741.09;5073424;28;20048;-44
2024/01/13 05:50:50;;;;;;;23.60;12.45;;;;;;;-1.02;95.28;100744.56;5073119;28;20045;-44
2024/01/13 05:53:19;;;;;;;23.10;12.90;;;;;;;-1.06;96.19;100754.19;5072893;28;20105;-51
2024/01/13 05:55:47;;;;;;;21.63;11.38;;;;;;;-1.05;96.55;100757.69;5074285;28;20041;-44
2024/01/13 05:58:16;;;;;;;23.55;12.52;;;;;;;-1.01;96.22;100751.53;5073527;28;20052;-43
2024/01/13 06:00:44;;;;;;;21.58;11.88;;;;;;;-1.05;95.90;100749.81;5072867;28;20401;-42
2024/01/13 06:03:17;;;;;;;24.38;12.82;;;;;;;-1.01;96.60;100749.78;5073025;28;20401;-43
2024/01/13 06:05:46;;;;;;;20.52;11.25;;;;;;;-1.00;96.66;100756.75;5074179;28;20056;-43
2024/01/13 06:08:14;;;;;;;23.23;12.10;;;;;;;-1.01;96.72;100751.53;5074050;28;20048;-43
2024/01/13 06:10:43;;;;;;;24.50;11.60;;;;;;;-0.98;96.66;100754.13;5073661;28;20052;-44
2024/01/13 06:13:11;;;;;;;24.35;13.07;;;;;;;-0.99;97.21;100747.16;5072478;28;20049;-44
2024/01/13 06:15:39;;;;;;;23.35;13.10;;;;;;;-0.90;96.70;100749.72;5073746;28;20060;-44
2024/01/13 06:18:08;;;;;;;23.90;12.35;;;;;;;-0.89;95.35;100746.22;5073148;28;20436;-42
2024/01/13 06:20:41;;;;;;;25.75;12.85;;;;;;;-0.86;96.04;100741.00;5072575;28;20291;-43
2024/01/13 06:23:09;;;;;;;24.37;12.43;;;;;;;-0.84;95.18;100733.13;5072803;28;20056;-43
2024/01/13 06:25:38;;;;;;;22.42;12.48;;;;;;;-0.80;95.11;100747.94;5073355;28;20052;-44
2024/01/13 06:28:07;;;;;;;21.27;11.80;;;;;;;-0.78;94.35;100740.94;5072033;28;20135;-43
2024/01/13 06:30:36;;;;;;;19.23;11.20;;;;;;;-0.74;93.63;100730.44;5071539;28;20564;-42
2024/01/13 06:33:05;;;;;;;21.60;11.45;;;;;;;-0.76;93.29;100745.28;5071517;28;20547;-43
2024/01/13 06:35:38;;;;;;;22.42;11.55;;;;;;;-0.67;93.45;100742.63;5072003;28;20509;-42
2024/01/13 06:38:06;;;;;;;19.90;11.37;;;;;;;-0.65;93.02;100746.09;5071944;28;20106;-44
2024/01/13 06:40:35;;;;;;;20.50;10.65;;;;;;;-0.69;93.11;100738.25;5072410;28;20048;-43
2024/01/13 06:43:07;;;;;;;20.52;11.07;;;;;;;-0.55;93.37;100743.41;5072199;28;20064;-43
2024/01/13 06:45:36;;;;;;;18.70;10.57;;;;;;;-0.46;91.13;100740.72;5071926;28;20071;-43
2024/01/13 06:48:05;;;;;;;20.08;11.20;;;;;;;-0.44;91.64;100741.59;5071290;28;20048;-44
2024/01/13 06:50:33;;;;;;;19.10;11.15;;;;;;;-0.30;90.66;100742.31;5071784;28;20080;-44
2024/01/13 06:53:16;;;;;;;22.20;11.40;;;;;;;-0.30;90.61;100737.09;5071846;28;20094;-43
2024/01/13 06:55:48;;;;;;;21.00;11.35;;;;;;;-0.28;90.23;100740.59;5072721;28;20098;-42
2024/01/13 06:58:18;;;;;;;19.85;11.15;;;;;;;-0.24;90.13;100736.19;5072078;28;20409;-42
2024/01/13 07:00:46;;;;;;;21.85;11.93;;;;;;;-0.19;89.75;100737.88;5072471;28;20135;-42
2024/01/13 07:03:14;;;;;;;20.63;11.48;;;;;;;-0.21;89.99;100737.00;5071482;28;20382;-43
2024/01/13 07:05:43;;;;;;;19.38;11.23;;;;;;;-0.16;90.17;100735.22;5072315;28;20094;-45
2024/01/13 07:08:12;;;;;;;22.42;11.90;;;;;;;-0.06;89.86;100742.13;5072447;28;20049;-43
2024/01/13 07:10:42;;;;;;;21.83;11.63;;;;;;;-0.06;89.98;100736.88;5071544;28;20044;-42
2024/01/13 07:13:10;;;;;;;22.40;11.82;;;;;;;0.01;89.93;100731.59;5073553;28;20340;-43
2024/01/13 07:15:40;;;;;;;23.08;12.43;;;;;;;0.05;89.78;100725.41;5069139;28;20041;-44
2024/01/13 07:18:08;;;;;;;23.38;12.13;;;;;;;-0.02;90.62;100732.47;5071403;28;20152;-43
2024/01/13 07:20:37;;;;;;;20.85;11.88;;;;;;;-0.03;90.45;100726.34;5071774;28;20048;-45
2024/01/13 07:23:09;;;;;;;21.92;11.93;;;;;;;-0.08;90.73;100733.41;5071793;28;20052;-42
2024/01/13 07:25:37;;;;;;;22.05;11.45;;;;;;;-0.03;91.33;100731.59;5072213;28;20501;-43
2024/01/13 07:28:07;;;;;;;21.65;12.48;;;;;;;0.09;90.86;100732.38;5070360;28;20044;-43
2024/01/13 07:30:38;;;;;;;23.83;13.10;;;;;;;0.13;91.10;100726.22;5072553;28;20122;-42
2024/01/13 07:33:08;;;;;;;24.35;12.23;;;;;;;0.14;90.59;100718.34;5072746;28;20417;-43
2024/01/13 07:35:37;;;;;;;24.77;13.32;;;;;;;0.11;90.99;100728.00;5072544;28;20048;-43
2024/01/13 07:38:05;;;;;;;27.77;13.70;;;;;;;0.19;91.18;100724.41;5072261;28;20045;-43
2024/01/13 07:40:34;;;;;;;26.52;12.80;;;;;;;0.23;90.84;100717.38;5071984;28;20119;-43
2024/01/13 07:43:02;;;;;;;25.08;13.23;;;;;;;0.27;90.52;100713.81;5072215;28;20126;-42
2024/01/13 07:45:32;;;;;;;24.70;13.65;;;;;;;0.28;90.49;100716.41;5072507;28;20044;-44
2024/01/13 07:48:04;;;;;;;22.08;12.40;;;;;;;0.22;90.82;100713.88;5071903;28;20052;-43
2024/01/13 07:50:41;;;;;;;24.45;12.93;;;;;;;0.28;90.85;100708.53;5071434;28;20052;-43
2024/01/13 07:53:12;;;;;;;24.58;12.98;;;;;;;0.35;90.52;100716.34;5071021;28;20938;-44
2024/01/13 07:55:40;;;;;;;24.63;12.57;;;;;;;0.38;89.90;100706.69;5071128;28;20044;-43
2024/01/13 07:58:09;;;;;;;23.23;12.45;;;;;;;0.35;90.19;100700.63;5071229;28;20678;-44
2024/01/13 08:00:39;;;;;;;24.38;13.57;;;;;;;0.26;90.09;100696.34;5073991;28;20052;-43
2024/01/13 08:03:08;;;;;;;24.15;13.60;;;;;;;0.13;91.15;100703.47;5075086;28;20048;-44
2024/01/13 08:05:36;;;;;;;26.52;13.38;;;;;;;0.21;90.61;100696.41;5074919;28;20048;-43
2024/01/13 08:08:07;;;;;;;25.38;13.63;;;;;;;0.11;90.90;100696.53;5075006;28;20082;-42
2024/01/13 08:10:38;;;;;;;25.25;13.60;;;;;;;0.07;92.29;100700.91;5074600;28;20056;-44
2024/01/13 08:13:06;;;;;;;28.27;13.43;;;;;;;0.11;92.36;100696.53;5074390;28;20052;-43
2024/01/13 08:15:35;;;;;;;23.90;13.07;;;;;;;0.25;91.51;100691.97;5074446;28;20045;-44
2024/01/13 08:18:05;;;;;;;24.83;13.20;;;;;;;0.26;91.17;100699.81;5075017;28;20138;-43
2024/01/13 08:20:36;;;;;;;28.27;14.02;;;;;;;0.26;91.69;100697.19;5075059;28;20051;-42
2024/01/13 08:23:05;;;;;;;26.63;13.70;;;;;;;0.26;91.84;100698.97;5074631;28;20074;-44
2024/01/13 08:25:37;;;;;;;27.77;13.90;;;;;;;0.27;92.16;100703.31;5074781;28;20049;-42
2024/01/13 08:28:07;;;;;;;27.80;13.63;;;;;;;0.29;92.14;100706.81;5074588;28;20044;-42
2024/01/13 08:30:35;;;;;;;30.45;14.52;;;;;;;0.34;92.00;100707.63;5074307;28;20102;-43
2024/01/13 08:33:05;;;;;;;30.08;14.40;;;;;;;0.33;92.77;100703.25;5074551;28;20159;-47
2024/01/13 08:35:34;;;;;;;31.20;15.05;;;;;;;0.31;92.88;100709.41;5073087;28;20086;-43
2024/01/13 08:38:03;;;;;;;29.75;14.57;;;;;;;0.38;92.39;100711.94;5073928;28;20480;-45
2024/01/13 08:40:34;;;;;;;32.85;15.90;;;;;;;0.29;93.52;100706.81;5073704;28;20044;-44
2024/01/13 08:43:03;;;;;;;32.28;15.10;;;;;;;0.30;93.12;100708.56;5073754;28;20044;-44
2024/01/13 08:45:33;;;;;;;34.50;17.17;;;;;;;0.34;93.66;100709.38;5074099;28;20056;-44
2024/01/13 08:48:01;;;;;;;34.42;16.83;;;;;;;0.32;95.40;100706.78;5074044;28;20139;-44
2024/01/13 08:50:32;;;;;;;38.97;17.48;;;;;;;0.33;94.61;100703.25;5073220;28;20142;-43
2024/01/13 08:53:01;;;;;;;40.95;17.73;;;;;;;0.44;94.48;100701.38;5074800;28;20052;-48
2024/01/13 08:55:29;;;;;;;35.42;17.92;;;;;;;0.38;95.29;100711.94;5074970;28;20135;-46
2024/01/13 08:57:57;;;;;;;37.45;18.25;;;;;;;0.37;95.37;100714.59;5073970;28;20137;-46
2024/01/13 09:00:26;;;;;;;42.25;19.40;;;;;;;0.44;95.17;100713.63;5074590;28;20481;-44
2024/01/13 09:02:54;;;;;;;44.28;18.83;;;;;;;0.46;95.04;100711.84;5075514;28;20541;-44
2024/01/13 09:05:22;;;;;;;48.28;20.20;;;;;;;0.46;95.73;100712.72;5074876;28;20124;-43
2024/01/13 09:07:52;;;;;;;42.85;19.30;;;;;;;0.37;96.63;100707.56;5073449;28;20054;-42
2024/01/13 09:10:21;;;;;;;43.10;19.02;;;;;;;0.48;96.04;100708.34;5074011;28;20083;-42
2024/01/13 09:12:49;;;;;;;45.28;19.95;;;;;;;0.59;95.89;100709.97;5075080;28;20076;-44
2024/01/13 09:15:17;;;;;;;42.75;19.75;;;;;;;0.56;95.37;100711.72;5075635;28;20051;-44
2024/01/13 09:17:46;;;;;;;36.53;17.70;;;;;;;0.43;96.00;100701.41;5075474;28;20044;-45
2024/01/13 09:20:14;;;;;;;39.35;17.70;;;;;;;0.50;95.67;100709.19;5074472;28;20052;-44
2024/01/13 09:22:42;;;;;;;35.40;17.30;;;;;;;0.51;94.73;100713.56;5073361;28;20049;-47
2024/01/13 09:25:13;;;;;;;38.88;18.08;;;;;;;0.48;95.02;100713.59;5073796;28;20094;-44
2024/01/13 09:27:41;;;;;;;41.38;17.48;;;;;;;0.55;94.87;100710.00;5073712;28;20055;-43
2024/01/13 09:30:11;;;;;;;37.53;17.35;;;;;;;0.65;95.98;100709.88;5072589;28;20048;-45
2024/01/13 09:32:46;;;;;;;36.47;17.38;;;;;;;0.70;94.33;100694.94;5072239;28;20044;-45
2024/01/13 09:35:14;;;;;;;35.53;16.67;;;;;;;0.78;92.36;100695.72;5073374;28;20045;-45
2024/01/13 09:37:43;;;;;;;34.60;16.23;;;;;;;0.88;91.62;100701.72;5074409;28;20087;-44
2024/01/13 09:40:15;;;;;;;35.30;16.13;;;;;;;0.86;90.61;100685.97;5072349;28;20150;-44
2024/01/13 09:42:53;;;;;;;34.80;16.00;;;;;;;0.83;89.66;100683.38;5073068;28;20040;-45
2024/01/13 09:45:23;;;;;;;33.22;14.98;;;;;;;0.77;88.78;100668.59;5072706;28;20550;-44
2024/01/13 09:47:54;;;;;;;31.25;14.55;;;;;;;0.90;89.42;100669.28;5071466;28;20511;-44
2024/01/13 09:50:22;;;;;;;31.58;15.30;;;;;;;0.96;87.41;100663.94;5073266;28;20056;-44
2024/01/13 09:52:51;;;;;;;34.00;13.88;;;;;;;1.05;87.93;100671.69;5074042;28;20053;-45
2024/01/13 09:55:22;;;;;;;32.28;14.50;;;;;;;1.02;86.81;100669.09;5072911;28;20072;-45
2024/01/13 09:57:50;;;;;;;32.80;16.02;;;;;;;0.99;86.71;100658.66;5073477;28;20094;-44
2024/01/13 10:00:19;;;;;;;26.42;12.93;;;;;;;1.07;87.22;100662.03;5072795;28;20098;-46
2024/01/13 10:02:47;;;;;;;28.17;13.15;;;;;;;1.09;85.59;100659.38;5073052;28;20127;-44
2024/01/13 10:05:16;;;;;;;30.88;13.70;;;;;;;1.05;86.20;100657.69;5073346;28;20051;-46
2024/01/13 10:07:51;;;;;;;30.77;14.07;;;;;;;1.00;85.92;100660.38;5073590;28;20120;-44
2024/01/13 10:10:23;;;;;;;32.70;13.82;;;;;;;1.04;85.76;100656.81;5073117;28;20049;-45
2024/01/13 10:12:53;;;;;;;31.33;14.18;;;;;;;1.16;85.44;100671.53;5073242;28;20045;-46
2024/01/13 10:15:21;;;;;;;31.10;14.23;;;;;;;0.97;85.54;100656.94;5072861;28;20086;-44
2024/01/13 10:17:55;;;;;;;29.33;14.50;;;;;;;0.94;85.72;100665.72;5073088;28;20040;-45
2024/01/13 10:20:25;;;;;;;28.02;13.23;;;;;;;1.01;85.70;100651.59;5073397;28;20045;-44
2024/01/13 10:22:53;;;;;;;33.03;14.52;;;;;;;0.88;86.17;100650.06;5072267;28;20045;-44
2024/01/13 10:25:23;;;;;;;31.63;14.40;;;;;;;0.88;86.99;100649.19;5072619;28;20040;-45
2024/01/13 10:27:55;;;;;;;33.13;15.27;;;;;;;0.87;87.03;100640.44;5072398;28;20049;-46
2024/01/13 10:30:23;;;;;;;29.73;14.68;;;;;;;0.95;86.65;100635.06;5073541;28;20477;-45
2024/01/13 10:32:52;;;;;;;30.58;14.07;;;;;;;1.00;86.61;100655.13;5072666;28;20067;-45
2024/01/13 10:35:22;;;;;;;35.97;14.25;;;;;;;1.14;86.31;100642.63;5072266;28;20079;-44
2024/01/13 10:37:50;;;;;;;30.92;14.50;;;;;;;1.24;85.73;100643.38;5072281;28;20131;-44
2024/01/13 10:40:18;;;;;;;31.83;14.75;;;;;;;1.31;85.72;100637.13;5070618;28;20537;-46
2024/01/13 10:42:54;;;;;;;32.45;14.85;;;;;;;1.42;85.14;100642.19;5071906;28;20048;-45
2024/01/13 10:45:24;;;;;;;30.80;14.70;;;;;;;1.47;84.78;100635.13;5072362;28;20086;-44
2024/01/13 10:47:53;;;;;;;29.25;14.32;;;;;;;1.49;83.86;100637.72;5072580;28;20040;-44
2024/01/13 10:50:22;;;;;;;32.95;13.38;;;;;;;1.44;83.28;100624.63;5072089;28;20072;-46
2024/01/13 10:52:59;;;;;;;27.40;13.10;;;;;;;1.35;83.60;100640.56;5073609;28;20409;-44
2024/01/13 10:55:30;;;;;;;32.28;14.00;;;;;;;1.41;83.70;100635.22;5074448;28;20314;-45
2024/01/13 10:58:04;;;;;;;24.48;11.98;;;;;;;1.38;82.12;100630.88;5074184;28;20053;-43
2024/01/13 11:00:40;;;;;;;24.13;12.30;;;;;;;1.21;83.18;100632.03;5071382;28;20401;-46
2024/01/13 11:03:17;;;;;;;24.10;12.20;;;;;;;1.28;83.63;100624.03;5073750;28;20049;-45
2024/01/13 11:05:47;;;;;;;24.38;11.75;;;;;;;1.34;82.60;100617.81;5073520;28;20049;-44
2024/01/13 11:08:20;;;;;;;28.80;12.82;;;;;;;1.39;82.89;100605.47;5072296;28;20048;-46
2024/01/13 11:10:51;;;;;;;27.10;12.43;;;;;;;1.46;82.22;100612.34;5073707;28;20056;-44
2024/01/13 11:13:24;;;;;;;23.10;10.90;;;;;;;1.42;81.62;100605.41;5072719;28;20048;-46
2024/01/13 11:15:59;;;;;;;19.80;9.98;;;;;;;1.39;81.25;100595.81;5073989;28;20091;-44
2024/01/13 11:18:28;;;;;;;24.80;11.20;;;;;;;1.56;81.22;100595.53;5071980;28;20383;-46
2024/01/13 11:21:06;;;;;;;24.85;11.20;;;;;;;1.64;80.54;100595.38;5074140;28;20409;-46
2024/01/13 11:23:45;;;;;;;22.40;10.07;;;;;;;1.48;80.36;100581.66;5072528;28;20515;-44